Glassville, Canada
Current Conditions -  °F | °C
As of 11:17 PM on Wednesday 22 Oct 2014 (Local Time) from KHUL Reporting Station
Light Rain Light Rain  
Wind Chill:   Ceiling: 7000
Heat Index:   Visibility: 9mi
Dew Point:   Wind: 13mph
Humidity: 89%   Direction: 40°NE
Pressure: 30.24"   Gusts: NA
Location:  46.48°N, 67.42°W
Report Text: KHUL 230217Z AUTO 04011KT 9SM -RA SCT017 SCT029 OVC070 06/04 A3024 RMK AO2 P0000 T00610044
Loading
Personal Weather Stations






























Interactive Weather Map
Tropical Storm Tracking
New forecast layout! Learn more

10-Day Weather Forecast

Advertisements
Track Severe Weather on mobile